createdAt,value
2023-03-29T00:09:36.863Z,984.9
2023-03-29T00:28:58.250Z,984.5
2023-03-29T00:48:20.131Z,984.3
2023-03-29T01:07:42.378Z,984.1
2023-03-29T01:27:05.970Z,983.9
2023-03-29T01:46:27.928Z,983.7
2023-03-29T02:05:49.127Z,983.6
2023-03-29T02:25:12.174Z,983.4
2023-03-29T02:44:34.947Z,983.1
2023-03-29T03:03:55.947Z,983.1
2023-03-29T03:23:18.514Z,983
2023-03-29T03:42:40.332Z,982.9
2023-03-29T04:02:03.028Z,982.9
2023-03-29T04:21:25.497Z,982.7
2023-03-29T04:40:48.212Z,982.7
2023-03-29T05:00:09.347Z,982.5
2023-03-29T05:19:31.356Z,982.5
2023-03-29T05:38:53.106Z,982.5
2023-03-29T05:58:16.198Z,982.6
2023-03-29T06:17:40.466Z,982.5
2023-03-29T06:37:03.517Z,982.4
2023-03-29T06:56:28.881Z,982.7
2023-03-29T07:15:50.135Z,982.8
2023-03-29T07:35:14.119Z,982.8
2023-03-29T07:54:38.280Z,982.7
2023-03-29T08:14:01.363Z,982.8
2023-03-29T08:33:24.408Z,982.6
2023-03-29T08:52:45.924Z,982.8
2023-03-29T09:12:08.918Z,982.7
2023-03-29T09:31:30.932Z,982.7
2023-03-29T09:50:53.251Z,982.6
2023-03-29T10:10:14.342Z,982.7
2023-03-29T10:29:34.878Z,982.5
2023-03-29T10:48:57.427Z,982.5
2023-03-29T11:08:20.807Z,982.4
2023-03-29T11:27:44.891Z,982.3
2023-03-29T11:47:09.548Z,982.2
2023-03-29T12:06:34.541Z,981.9
2023-03-29T12:26:00.293Z,981.8
2023-03-29T12:45:25.956Z,981.5
2023-03-29T13:04:50.685Z,981.1
2023-03-29T13:24:14.893Z,981.2
2023-03-29T13:43:39.084Z,980.9
2023-03-29T14:03:03.939Z,980.9
2023-03-29T14:22:24.653Z,980.6
2023-03-29T14:41:48.549Z,980.2
2023-03-29T15:01:12.222Z,980.1
2023-03-29T15:20:36.651Z,980
2023-03-29T15:39:59.169Z,979.8
2023-03-29T15:59:21.502Z,979.6
2023-03-29T16:18:43.287Z,979.2
2023-03-29T16:38:05.743Z,979
2023-03-29T16:57:27.745Z,978.9
2023-03-29T17:16:48.726Z,978.8
2023-03-29T17:36:10.688Z,978.7
2023-03-29T17:55:32.682Z,978.6
2023-03-29T18:14:55.279Z,978.5
2023-03-29T18:34:16.730Z,978.6
2023-03-29T18:53:38.996Z,978.5
2023-03-29T19:13:01.003Z,978.5
2023-03-29T19:32:22.174Z,978.2
2023-03-29T19:51:42.513Z,978.1
2023-03-29T20:11:05.916Z,977.8
2023-03-29T20:30:28.705Z,977.5
2023-03-29T20:49:50.052Z,977.4
2023-03-29T21:09:09.388Z,977.2
2023-03-29T21:28:30.682Z,977
2023-03-29T21:47:53.344Z,976.9
2023-03-29T22:07:15.493Z,976.4
2023-03-29T22:26:37.900Z,976.3
2023-03-29T22:46:00.669Z,976.5
2023-03-29T23:05:20.138Z,976.1
2023-03-29T23:24:54.362Z,976
2023-03-29T23:44:07.088Z,976
